createdAt,value
2017-11-16T00:01:41.049Z,4.30
2017-11-16T00:04:07.288Z,4.40
2017-11-16T00:06:33.519Z,4.40
2017-11-16T00:08:59.764Z,4.40
2017-11-16T00:11:26.403Z,4.40
2017-11-16T00:13:53.013Z,4.40
2017-11-16T00:16:19.259Z,4.40
2017-11-16T00:18:45.503Z,4.50
2017-11-16T00:21:12.131Z,4.40
2017-11-16T00:23:38.752Z,4.40
2017-11-16T00:26:04.978Z,4.40
2017-11-16T00:28:31.208Z,4.50
2017-11-16T00:30:57.445Z,4.40
2017-11-16T00:33:23.644Z,4.40
2017-11-16T00:35:49.877Z,4.40
2017-11-16T00:38:16.122Z,4.30
2017-11-16T00:40:42.359Z,4.40
2017-11-16T00:43:08.562Z,4.30
2017-11-16T00:45:34.775Z,4.30
2017-11-16T00:48:01.032Z,4.30
2017-11-16T00:50:27.281Z,4.30
2017-11-16T00:52:53.898Z,4.40
2017-11-16T00:55:20.114Z,4.30
2017-11-16T00:57:46.354Z,4.40
2017-11-16T01:00:12.565Z,4.40
2017-11-16T01:02:38.788Z,4.30
2017-11-16T01:05:05.055Z,4.40
2017-11-16T01:07:31.661Z,4.30
2017-11-16T01:09:57.922Z,4.40
2017-11-16T01:12:24.153Z,4.40
2017-11-16T01:14:50.388Z,4.30
2017-11-16T01:17:16.971Z,4.30
2017-11-16T01:19:43.194Z,4.30
2017-11-16T01:22:09.439Z,4.20
2017-11-16T01:24:35.661Z,4.20
2017-11-16T01:27:01.912Z,4.20
2017-11-16T01:29:28.130Z,4.20
2017-11-16T01:31:54.328Z,4.20
2017-11-16T01:34:20.574Z,4.20
2017-11-16T01:36:46.778Z,4.20
2017-11-16T01:39:13.036Z,4.20
2017-11-16T01:41:39.277Z,4.20
2017-11-16T01:44:05.523Z,4.10
2017-11-16T01:46:31.795Z,4.10
2017-11-16T01:48:58.004Z,4.20
2017-11-16T01:51:24.264Z,4.20
2017-11-16T01:53:50.504Z,4.20
2017-11-16T01:56:16.748Z,4.10
2017-11-16T01:58:43.044Z,4.00
2017-11-16T02:01:09.279Z,4.10
2017-11-16T02:03:35.541Z,4.20
2017-11-16T02:06:01.804Z,4.20
2017-11-16T02:08:28.373Z,4.30
2017-11-16T02:10:54.620Z,4.30
2017-11-16T02:13:20.894Z,4.30
2017-11-16T02:15:47.514Z,4.30
2017-11-16T02:18:14.151Z,4.30
2017-11-16T02:20:40.765Z,4.40
2017-11-16T02:23:07.072Z,4.40
2017-11-16T02:25:33.315Z,4.30
2017-11-16T02:27:59.558Z,4.30
2017-11-16T02:30:25.819Z,4.30
2017-11-16T02:32:52.066Z,4.30
2017-11-16T02:35:18.337Z,4.30
2017-11-16T02:37:44.554Z,4.30
2017-11-16T02:40:10.837Z,4.30
2017-11-16T02:42:37.488Z,4.40
2017-11-16T02:45:03.745Z,4.40
2017-11-16T02:47:30.041Z,4.40
2017-11-16T02:49:56.303Z,4.40
2017-11-16T02:52:22.573Z,4.40
2017-11-16T02:54:49.204Z,4.50
2017-11-16T02:57:15.466Z,4.50
2017-11-16T02:59:41.748Z,4.50
2017-11-16T03:02:08.010Z,4.50
2017-11-16T03:04:34.629Z,4.40
2017-11-16T03:07:00.871Z,4.40
2017-11-16T03:09:27.116Z,4.40
2017-11-16T03:11:53.655Z,4.30
2017-11-16T03:14:19.900Z,4.30
2017-11-16T03:16:46.134Z,4.40
2017-11-16T03:19:12.422Z,4.50
2017-11-16T03:21:38.635Z,4.50
2017-11-16T03:24:05.253Z,4.60
2017-11-16T03:26:31.540Z,4.60
2017-11-16T03:28:57.807Z,4.60
2017-11-16T03:31:24.049Z,4.50
2017-11-16T03:33:50.276Z,4.50
2017-11-16T03:36:16.805Z,4.50
2017-11-16T03:38:43.057Z,4.50
2017-11-16T03:41:09.320Z,4.50
2017-11-16T03:43:35.560Z,4.50
2017-11-16T03:46:01.789Z,4.50
2017-11-16T03:48:28.071Z,4.60
2017-11-16T03:50:54.693Z,4.60
2017-11-16T03:53:20.947Z,4.60
2017-11-16T03:55:47.562Z,4.40
2017-11-16T03:58:13.781Z,4.40
2017-11-16T04:00:40.031Z,4.40
2017-11-16T04:03:06.614Z,4.30
2017-11-16T04:05:32.885Z,4.30
2017-11-16T04:07:59.106Z,4.30
2017-11-16T04:10:25.348Z,4.50
2017-11-16T04:12:51.990Z,4.40
2017-11-16T04:15:18.603Z,4.40
2017-11-16T04:17:44.870Z,4.40
2017-11-16T04:20:11.112Z,4.40
2017-11-16T04:22:37.353Z,4.40
2017-11-16T04:25:03.596Z,4.50
2017-11-16T04:27:29.853Z,4.40
2017-11-16T04:29:56.115Z,4.40
2017-11-16T04:32:22.402Z,4.30
2017-11-16T04:34:48.636Z,4.40
2017-11-16T04:37:14.869Z,4.30
2017-11-16T04:39:41.493Z,4.40
2017-11-16T04:42:07.734Z,4.40
2017-11-16T04:44:33.947Z,4.30
2017-11-16T04:47:00.203Z,4.30
2017-11-16T04:49:26.802Z,4.30
2017-11-16T04:51:53.059Z,4.30
2017-11-16T04:54:19.285Z,4.30
2017-11-16T04:56:45.501Z,4.30
2017-11-16T04:59:11.704Z,4.30
2017-11-16T05:01:37.938Z,4.30
2017-11-16T05:04:04.181Z,4.30
2017-11-16T05:06:30.408Z,4.40
2017-11-16T05:08:56.686Z,4.40
2017-11-16T05:11:22.926Z,4.40
2017-11-16T05:13:49.177Z,4.40
2017-11-16T05:16:15.439Z,4.50
2017-11-16T05:18:41.676Z,4.50
2017-11-16T05:21:08.329Z,4.30
2017-11-16T05:23:34.607Z,4.30
2017-11-16T05:26:00.850Z,4.30
2017-11-16T05:28:27.073Z,4.40
2017-11-16T05:30:53.305Z,4.40
2017-11-16T05:33:19.576Z,4.30
2017-11-16T05:35:45.810Z,4.30
2017-11-16T05:38:12.103Z,4.20
2017-11-16T05:40:38.370Z,4.20
2017-11-16T05:43:04.647Z,4.30
2017-11-16T05:45:30.927Z,4.30
2017-11-16T05:47:57.209Z,4.40
2017-11-16T05:50:23.522Z,4.40
2017-11-16T05:52:49.790Z,4.40
2017-11-16T05:55:16.818Z,4.40
2017-11-16T05:57:43.079Z,4.40
2017-11-16T06:00:09.354Z,4.50
2017-11-16T06:02:35.626Z,4.50
2017-11-16T06:05:01.918Z,4.40
2017-11-16T06:07:28.162Z,4.50
2017-11-16T06:09:54.388Z,4.40
2017-11-16T06:12:20.597Z,4.40
2017-11-16T06:14:46.849Z,4.50
2017-11-16T06:17:13.110Z,4.50
2017-11-16T06:19:39.375Z,4.50
2017-11-16T06:22:05.589Z,4.50
2017-11-16T06:24:32.174Z,4.60
2017-11-16T06:26:58.390Z,4.60
2017-11-16T06:29:24.620Z,4.50
2017-11-16T06:31:51.461Z,4.50
2017-11-16T06:34:17.700Z,4.60
2017-11-16T06:36:43.937Z,4.60
2017-11-16T06:39:10.518Z,4.60
2017-11-16T06:41:36.757Z,4.60
2017-11-16T06:44:03.017Z,4.40
2017-11-16T06:46:29.228Z,4.50
2017-11-16T06:48:55.471Z,4.50
2017-11-16T06:51:21.679Z,4.50
2017-11-16T06:53:47.931Z,4.60
2017-11-16T06:56:14.145Z,4.60
2017-11-16T06:58:40.401Z,4.60
2017-11-16T07:01:07.013Z,4.60
2017-11-16T07:03:33.238Z,4.60
2017-11-16T07:05:59.483Z,4.70
2017-11-16T07:08:25.695Z,4.70
2017-11-16T07:10:51.916Z,4.70
2017-11-16T07:13:18.125Z,4.70
2017-11-16T07:15:44.341Z,4.70
2017-11-16T07:18:10.591Z,4.60
2017-11-16T07:20:36.819Z,4.50
2017-11-16T07:23:03.091Z,4.60
2017-11-16T07:25:29.696Z,4.70
2017-11-16T07:27:55.923Z,4.70
2017-11-16T07:30:22.136Z,4.70
2017-11-16T07:32:48.340Z,4.60
2017-11-16T07:35:14.557Z,4.60
2017-11-16T07:37:40.781Z,4.70
2017-11-16T07:40:07.079Z,4.70
2017-11-16T07:42:33.326Z,4.70
2017-11-16T07:44:59.947Z,4.80
2017-11-16T07:47:26.190Z,4.80
2017-11-16T07:49:52.802Z,4.70
2017-11-16T07:52:19.091Z,4.70
2017-11-16T07:54:45.388Z,4.80
2017-11-16T07:57:12.037Z,4.60
2017-11-16T07:59:38.286Z,4.60
2017-11-16T08:02:04.547Z,4.60
2017-11-16T08:04:30.796Z,4.70
2017-11-16T08:06:57.028Z,4.70
2017-11-16T08:09:23.658Z,4.70
2017-11-16T08:11:49.964Z,4.70
2017-11-16T08:14:16.214Z,4.80
2017-11-16T08:16:42.501Z,4.90
2017-11-16T08:19:08.754Z,5.00
2017-11-16T08:21:35.057Z,4.90
2017-11-16T08:24:01.291Z,5.00
2017-11-16T08:26:27.871Z,5.10
2017-11-16T08:28:54.136Z,5.20
2017-11-16T08:31:20.340Z,5.10
2017-11-16T08:33:46.958Z,5.20
2017-11-16T08:36:13.219Z,5.20
2017-11-16T08:38:39.499Z,5.20
2017-11-16T08:41:05.770Z,5.10
2017-11-16T08:43:32.667Z,5.10
2017-11-16T08:45:58.935Z,5.10
2017-11-16T08:48:25.589Z,5.20
2017-11-16T08:50:51.860Z,5.20
2017-11-16T08:53:18.133Z,5.10
2017-11-16T08:55:44.442Z,5.10
2017-11-16T08:58:10.721Z,5.10
2017-11-16T09:00:37.018Z,5.10
2017-11-16T09:03:03.282Z,5.20
2017-11-16T09:05:29.829Z,5.20
2017-11-16T09:07:56.084Z,5.20
2017-11-16T09:10:22.393Z,5.20
2017-11-16T09:12:48.677Z,5.20
2017-11-16T09:15:14.991Z,5.20
2017-11-16T09:17:41.634Z,5.30
2017-11-16T09:20:08.278Z,5.20
2017-11-16T09:22:34.951Z,5.20
2017-11-16T09:25:01.205Z,5.20
2017-11-16T09:27:27.475Z,5.30
2017-11-16T09:29:53.746Z,5.30
2017-11-16T09:32:20.052Z,5.40
2017-11-16T09:34:46.346Z,5.40
2017-11-16T09:37:12.688Z,5.40
2017-11-16T09:39:38.995Z,5.40
2017-11-16T09:42:05.346Z,5.40
2017-11-16T09:44:31.620Z,5.30
2017-11-16T09:46:57.918Z,5.40
2017-11-16T09:49:24.217Z,5.40
2017-11-16T09:51:50.513Z,5.40
2017-11-16T09:54:16.772Z,5.50
2017-11-16T09:56:43.072Z,5.50
2017-11-16T09:59:09.337Z,5.60
2017-11-16T10:01:35.597Z,5.50
2017-11-16T10:04:01.843Z,5.50
2017-11-16T10:06:28.119Z,5.60
2017-11-16T10:08:54.338Z,5.50
2017-11-16T10:11:20.606Z,5.60
2017-11-16T10:13:47.210Z,5.50
2017-11-16T10:16:13.460Z,5.50
2017-11-16T10:18:40.087Z,5.60
2017-11-16T10:21:06.362Z,5.60
2017-11-16T10:23:32.613Z,5.50
2017-11-16T10:25:58.845Z,5.50
2017-11-16T10:28:25.396Z,5.60
2017-11-16T10:30:51.641Z,5.50
2017-11-16T10:33:17.887Z,5.50
2017-11-16T10:35:44.197Z,5.40
2017-11-16T10:38:10.480Z,5.50
2017-11-16T10:40:36.730Z,5.50
2017-11-16T10:43:03.019Z,5.40
2017-11-16T10:45:29.297Z,5.40
2017-11-16T10:47:55.608Z,5.50
2017-11-16T10:50:21.922Z,5.60
2017-11-16T10:52:48.171Z,5.50
2017-11-16T10:55:14.426Z,5.60
2017-11-16T10:57:40.718Z,5.60
2017-11-16T11:00:07.006Z,5.60
2017-11-16T11:02:33.254Z,5.50
2017-11-16T11:04:59.501Z,5.50
2017-11-16T11:07:25.743Z,5.50
2017-11-16T11:09:52.018Z,5.50
2017-11-16T11:12:18.305Z,5.50
2017-11-16T11:14:44.573Z,5.60
2017-11-16T11:17:11.187Z,5.80
2017-11-16T11:19:37.448Z,5.80
2017-11-16T11:22:04.063Z,5.80
2017-11-16T11:24:30.338Z,5.80
2017-11-16T11:26:56.572Z,5.80
2017-11-16T11:29:22.896Z,5.80
2017-11-16T11:31:49.139Z,5.80
2017-11-16T11:34:15.364Z,5.70
2017-11-16T11:36:41.608Z,5.70
2017-11-16T11:39:07.839Z,5.60
2017-11-16T11:41:34.117Z,5.70
2017-11-16T11:44:00.377Z,5.70
2017-11-16T11:46:26.626Z,5.70
2017-11-16T11:48:52.871Z,5.60
2017-11-16T11:51:19.190Z,5.70
2017-11-16T11:53:45.432Z,5.70
2017-11-16T11:56:11.683Z,5.90
2017-11-16T11:58:38.316Z,5.50
2017-11-16T12:01:04.950Z,5.70
2017-11-16T12:03:31.611Z,5.50
2017-11-16T12:05:57.860Z,5.50
2017-11-16T12:08:24.426Z,5.40
2017-11-16T12:10:50.677Z,5.40
2017-11-16T12:13:17.296Z,4.90
2017-11-16T12:15:43.595Z,4.80
2017-11-16T12:18:09.827Z,5.00
2017-11-16T12:20:36.074Z,4.90
2017-11-16T12:23:02.341Z,4.90
2017-11-16T12:25:28.963Z,5.00
2017-11-16T12:27:55.255Z,5.00
2017-11-16T12:30:21.571Z,5.10
2017-11-16T12:32:47.852Z,5.10
2017-11-16T12:35:14.121Z,5.20
2017-11-16T12:37:40.421Z,5.50
2017-11-16T12:40:07.101Z,5.30
2017-11-16T12:42:33.440Z,5.30
2017-11-16T12:44:59.746Z,5.20
2017-11-16T12:47:26.018Z,5.10
2017-11-16T12:49:52.346Z,5.00
2017-11-16T12:52:18.640Z,5.00
2017-11-16T12:54:44.930Z,4.90
2017-11-16T12:57:11.235Z,5.00
2017-11-16T12:59:37.479Z,5.20
2017-11-16T13:02:03.758Z,5.10
2017-11-16T13:04:30.027Z,5.00
2017-11-16T13:06:56.312Z,5.10
2017-11-16T13:09:22.575Z,5.30
2017-11-16T13:11:48.810Z,5.20
2017-11-16T13:14:15.059Z,5.20
2017-11-16T13:16:41.712Z,5.30
2017-11-16T13:19:08.348Z,5.40
2017-11-16T13:21:34.631Z,5.30
2017-11-16T13:24:01.189Z,5.30
2017-11-16T13:26:27.440Z,5.50
2017-11-16T13:28:54.058Z,5.50
2017-11-16T13:31:20.335Z,5.50
2017-11-16T13:33:46.568Z,5.50
2017-11-16T13:36:12.847Z,5.30
2017-11-16T13:38:39.520Z,5.30
2017-11-16T13:41:05.870Z,5.30
2017-11-16T13:43:32.164Z,5.40
2017-11-16T13:45:58.758Z,5.30
2017-11-16T13:48:25.020Z,5.30
2017-11-16T13:50:51.231Z,5.30
2017-11-16T13:53:17.896Z,5.40
2017-11-16T13:55:44.135Z,5.40
2017-11-16T13:58:10.353Z,5.40
2017-11-16T14:00:36.659Z,5.40
2017-11-16T14:03:02.923Z,5.40
2017-11-16T14:05:29.183Z,5.40
2017-11-16T14:07:55.430Z,5.30
2017-11-16T14:10:21.728Z,5.20
2017-11-16T14:12:49.327Z,5.20
2017-11-16T14:15:16.174Z,5.20
2017-11-16T14:17:42.427Z,5.20
2017-11-16T14:20:09.027Z,5.30
2017-11-16T14:22:35.290Z,5.30
2017-11-16T14:25:01.563Z,5.40
2017-11-16T14:27:27.806Z,5.30
2017-11-16T14:29:54.018Z,5.20
2017-11-16T14:32:20.281Z,5.20
2017-11-16T14:34:46.513Z,5.20
2017-11-16T14:37:13.134Z,5.20
2017-11-16T14:39:39.384Z,5.20
2017-11-16T14:42:06.431Z,5.00
2017-11-16T14:44:33.239Z,5.10
2017-11-16T14:46:59.619Z,5.10
2017-11-16T14:49:25.887Z,5.10
2017-11-16T14:51:52.177Z,5.10
2017-11-16T14:54:18.505Z,5.10
2017-11-16T14:56:44.802Z,5.00
2017-11-16T14:59:11.062Z,5.10
2017-11-16T15:01:37.675Z,5.00
2017-11-16T15:04:03.936Z,5.00
2017-11-16T15:06:30.405Z,5.00
2017-11-16T15:08:56.639Z,4.70
2017-11-16T15:11:22.888Z,4.60
2017-11-16T15:13:49.151Z,4.50
2017-11-16T15:16:15.772Z,4.60
2017-11-16T15:18:42.050Z,4.60
2017-11-16T15:21:08.318Z,4.70
2017-11-16T15:23:34.567Z,4.90
2017-11-16T15:26:01.215Z,4.70
2017-11-16T15:28:27.467Z,4.70
2017-11-16T15:30:53.700Z,4.70
2017-11-16T15:33:19.982Z,4.80
2017-11-16T15:35:46.595Z,4.70
2017-11-16T15:38:12.880Z,4.70
2017-11-16T15:40:39.155Z,4.70
2017-11-16T15:43:05.426Z,4.70
2017-11-16T15:45:31.644Z,4.80
2017-11-16T15:47:58.279Z,4.80
2017-11-16T15:50:24.927Z,4.80
2017-11-16T15:52:51.220Z,4.80
2017-11-16T15:55:17.535Z,4.70
2017-11-16T15:57:43.735Z,4.60
2017-11-16T16:00:10.008Z,4.50
2017-11-16T16:02:36.264Z,4.50
2017-11-16T16:05:02.949Z,4.80
2017-11-16T16:07:29.207Z,4.80
2017-11-16T16:09:55.459Z,4.70
2017-11-16T16:12:21.733Z,4.60
2017-11-16T16:14:48.119Z,4.60
2017-11-16T16:17:14.389Z,4.70
2017-11-16T16:19:40.647Z,4.70
2017-11-16T16:22:06.907Z,4.80
2017-11-16T16:24:33.528Z,4.70
2017-11-16T16:26:59.777Z,4.70
2017-11-16T16:29:26.402Z,4.60
2017-11-16T16:31:52.993Z,4.50
2017-11-16T16:34:19.219Z,4.50
2017-11-16T16:36:45.485Z,4.40
2017-11-16T16:39:11.757Z,4.30
2017-11-16T16:41:38.027Z,4.30
2017-11-16T16:44:04.273Z,4.40
2017-11-16T16:46:30.508Z,4.50
2017-11-16T16:48:56.749Z,4.60
2017-11-16T16:51:23.021Z,4.70
2017-11-16T16:53:49.266Z,4.70
2017-11-16T16:56:15.519Z,4.80
2017-11-16T16:58:42.607Z,4.80
2017-11-16T17:01:08.886Z,4.90
2017-11-16T17:03:35.180Z,4.90
2017-11-16T17:06:01.451Z,4.80
2017-11-16T17:08:28.095Z,4.90
2017-11-16T17:10:54.726Z,4.90
2017-11-16T17:13:21.004Z,4.90
2017-11-16T17:15:47.214Z,4.80
2017-11-16T17:18:13.434Z,4.70
2017-11-16T17:20:39.746Z,4.60
2017-11-16T17:23:06.041Z,4.50
2017-11-16T17:25:32.301Z,4.60
2017-11-16T17:27:58.940Z,4.70
2017-11-16T17:30:25.270Z,4.60
2017-11-16T17:32:51.529Z,4.50
2017-11-16T17:35:17.804Z,4.50
2017-11-16T17:37:44.053Z,4.70
2017-11-16T17:40:10.339Z,4.80
2017-11-16T17:42:37.276Z,4.50
2017-11-16T17:45:03.586Z,4.30
2017-11-16T17:47:29.878Z,4.30
2017-11-16T17:49:56.187Z,4.20
2017-11-16T17:52:22.472Z,4.30
2017-11-16T17:54:48.734Z,4.40
2017-11-16T17:57:15.164Z,4.20
2017-11-16T17:59:41.425Z,4.20
2017-11-16T18:02:07.698Z,4.20
2017-11-16T18:04:33.954Z,4.40
2017-11-16T18:07:00.521Z,4.60
2017-11-16T18:09:26.755Z,4.60
2017-11-16T18:11:53.001Z,4.70
2017-11-16T18:14:19.652Z,4.50
2017-11-16T18:16:45.933Z,4.50
2017-11-16T18:19:12.228Z,4.50
2017-11-16T18:21:38.499Z,4.40
2017-11-16T18:24:04.868Z,4.40
2017-11-16T18:26:31.133Z,4.40
2017-11-16T18:28:57.400Z,4.40
2017-11-16T18:31:24.028Z,4.40
2017-11-16T18:33:50.315Z,4.40
2017-11-16T18:36:16.907Z,4.50
2017-11-16T18:38:43.494Z,4.30
2017-11-16T18:41:09.725Z,4.30
2017-11-16T18:43:36.011Z,4.30
2017-11-16T18:46:02.647Z,4.60
2017-11-16T18:48:29.579Z,4.60
2017-11-16T18:50:56.099Z,4.60
2017-11-16T18:53:23.760Z,4.60
2017-11-16T18:55:50.009Z,4.60
2017-11-16T18:58:16.640Z,4.70
2017-11-16T19:00:43.049Z,4.70
2017-11-16T19:03:09.294Z,4.70
2017-11-16T19:05:35.604Z,4.70
2017-11-16T19:08:01.915Z,4.70
2017-11-16T19:10:28.187Z,4.60
2017-11-16T19:12:54.544Z,4.70
2017-11-16T19:15:20.950Z,4.70
2017-11-16T19:17:47.519Z,4.90
2017-11-16T19:20:13.995Z,4.90
2017-11-16T19:22:40.341Z,4.70
2017-11-16T19:25:06.599Z,4.60
2017-11-16T19:27:33.269Z,4.60
2017-11-16T19:29:59.486Z,4.70
2017-11-16T19:32:25.717Z,4.40
2017-11-16T19:34:52.002Z,4.30
2017-11-16T19:37:18.293Z,4.40
2017-11-16T19:39:44.586Z,4.50
2017-11-16T19:42:10.867Z,4.50
2017-11-16T19:44:37.225Z,4.50
2017-11-16T19:47:04.069Z,4.80
2017-11-16T19:49:30.709Z,4.70
2017-11-16T19:51:57.427Z,4.80
2017-11-16T19:54:23.719Z,4.80
2017-11-16T19:56:50.422Z,4.70
2017-11-16T19:59:17.245Z,4.70
2017-11-16T20:01:43.569Z,4.70
2017-11-16T20:04:10.331Z,4.80
2017-11-16T20:06:36.652Z,4.80
2017-11-16T20:09:03.088Z,4.80
2017-11-16T20:11:29.631Z,4.80
2017-11-16T20:13:56.012Z,4.80
2017-11-16T20:16:22.403Z,4.70
2017-11-16T20:18:48.657Z,4.80
2017-11-16T20:21:15.382Z,4.80
2017-11-16T20:23:41.830Z,4.80
2017-11-16T20:26:08.210Z,4.90
2017-11-16T20:28:34.741Z,4.90
2017-11-16T20:31:02.444Z,4.90
2017-11-16T20:33:28.760Z,4.80
2017-11-16T20:35:55.548Z,4.90
2017-11-16T20:38:22.951Z,4.90
2017-11-16T20:40:55.358Z,4.90
2017-11-16T20:43:22.561Z,4.90
2017-11-16T20:45:53.110Z,4.80
2017-11-16T20:48:25.716Z,4.70
2017-11-16T20:50:58.174Z,4.60
2017-11-16T20:53:30.608Z,4.70
2017-11-16T20:55:57.070Z,4.70
2017-11-16T20:58:23.427Z,4.70
2017-11-16T21:00:49.910Z,4.70
2017-11-16T21:05:48.219Z,4.80
2017-11-16T21:08:14.616Z,4.90
2017-11-16T21:10:41.006Z,4.80
2017-11-16T21:13:07.302Z,4.80
2017-11-16T21:15:33.590Z,4.60
2017-11-16T21:17:59.849Z,4.70
2017-11-16T21:20:26.237Z,4.70
2017-11-16T21:22:52.510Z,4.80
2017-11-16T21:25:18.842Z,4.80
2017-11-16T21:27:45.143Z,4.80
2017-11-16T21:30:11.501Z,4.70
2017-11-16T21:32:38.647Z,4.70
2017-11-16T21:35:04.923Z,4.60
2017-11-16T21:37:31.178Z,4.60
2017-11-16T21:39:57.444Z,4.60
2017-11-16T21:42:23.733Z,4.50
2017-11-16T21:44:49.999Z,4.60
2017-11-16T21:47:16.283Z,4.70
2017-11-16T21:49:42.545Z,4.80
2017-11-16T21:52:08.858Z,4.80
2017-11-16T21:54:35.093Z,4.90
2017-11-16T21:57:01.334Z,4.70
2017-11-16T21:59:27.604Z,4.70
2017-11-16T22:01:53.835Z,4.60
2017-11-16T22:04:20.721Z,4.40
2017-11-16T22:06:46.987Z,4.50
2017-11-16T22:09:13.594Z,4.40
2017-11-16T22:11:39.876Z,4.40
2017-11-16T22:14:06.124Z,4.30
2017-11-16T22:16:32.714Z,4.30
2017-11-16T22:18:59.336Z,4.50
2017-11-16T22:21:25.599Z,4.50
2017-11-16T22:23:51.871Z,4.60
2017-11-16T22:26:18.127Z,4.70
2017-11-16T22:28:44.381Z,4.80
2017-11-16T22:31:10.598Z,4.80
2017-11-16T22:33:37.193Z,4.80
2017-11-16T22:36:03.472Z,4.80
2017-11-16T22:38:29.746Z,4.80
2017-11-16T22:40:55.992Z,4.90
2017-11-16T22:43:22.218Z,5.00
2017-11-16T22:45:48.459Z,4.90
2017-11-16T22:48:14.696Z,5.00
2017-11-16T22:50:40.921Z,5.00
2017-11-16T22:53:07.174Z,5.00
2017-11-16T22:55:33.439Z,4.70
2017-11-16T22:57:59.681Z,4.80
2017-11-16T23:00:25.942Z,4.50
2017-11-16T23:02:52.223Z,4.40
2017-11-16T23:05:18.470Z,4.30
2017-11-16T23:07:45.050Z,4.20
2017-11-16T23:10:11.289Z,4.30
2017-11-16T23:12:37.501Z,4.40
2017-11-16T23:15:03.769Z,4.40
2017-11-16T23:17:30.002Z,4.50
2017-11-16T23:19:56.253Z,4.60
2017-11-16T23:22:22.581Z,4.60
2017-11-16T23:24:48.817Z,4.40
2017-11-16T23:27:15.078Z,4.30
2017-11-16T23:29:41.325Z,4.30
2017-11-16T23:32:07.582Z,4.50
2017-11-16T23:34:33.815Z,4.50
2017-11-16T23:37:00.049Z,4.60
2017-11-16T23:39:26.314Z,4.60
2017-11-16T23:41:52.912Z,4.50
2017-11-16T23:44:19.558Z,4.60
2017-11-16T23:46:45.786Z,4.50
2017-11-16T23:49:12.002Z,4.50
2017-11-16T23:51:38.255Z,4.60
2017-11-16T23:54:04.492Z,4.60
2017-11-16T23:56:31.115Z,4.50
2017-11-16T23:58:57.347Z,4.50
